sensor_id;sensor_type;location;lat;lon;timestamp;pressure;altitude;pressure_sealevel;temperature;humidity
56400;BME280;42298;53.638;9.876;2024-01-06T00:00:18;106587.44;;;-0.38;100.00
56400;BME280;42298;53.638;9.876;2024-01-06T00:02:43;106620.78;;;-0.34;100.00
56400;BME280;42298;53.638;9.876;2024-01-06T00:05:09;106560.81;;;-0.51;100.00
56400;BME280;42298;53.638;9.876;2024-01-06T00:07:34;106537.41;;;-0.45;100.00
56400;BME280;42298;53.638;9.876;2024-01-06T00:09:59;106621.56;;;-0.37;100.00
56400;BME280;42298;53.638;9.876;2024-01-06T00:12:25;106647.84;;;-0.35;100.00
56400;BME280;42298;53.638;9.876;2024-01-06T00:14:50;106625.81;;;-0.40;100.00
56400;BME280;42298;53.638;9.876;2024-01-06T00:17:16;106695.94;;;-0.33;100.00
56400;BME280;42298;53.638;9.876;2024-01-06T00:19:42;106712.59;;;-0.33;100.00
56400;BME280;42298;53.638;9.876;2024-01-06T00:22:08;106706.41;;;-0.35;100.00
56400;BME280;42298;53.638;9.876;2024-01-06T00:24:33;106711.56;;;-0.36;100.00
56400;BME280;42298;53.638;9.876;2024-01-06T00:26:58;106721.25;;;-0.35;100.00
56400;BME280;42298;53.638;9.876;2024-01-06T00:29:24;106686.09;;;-0.40;100.00
56400;BME280;42298;53.638;9.876;2024-01-06T00:31:49;106698.47;;;-0.36;100.00
56400;BME280;42298;53.638;9.876;2024-01-06T00:34:15;106757.19;;;-0.31;100.00
56400;BME280;42298;53.638;9.876;2024-01-06T00:36:40;106749.28;;;-0.33;100.00
56400;BME280;42298;53.638;9.876;2024-01-06T00:39:05;106769.47;;;-0.30;100.00
56400;BME280;42298;53.638;9.876;2024-01-06T00:41:30;106765.91;;;-0.32;100.00
56400;BME280;42298;53.638;9.876;2024-01-06T00:43:56;106761.53;;;-0.32;100.00
56400;BME280;42298;53.638;9.876;2024-01-06T00:46:21;106744.88;;;-0.34;100.00
56400;BME280;42298;53.638;9.876;2024-01-06T00:48:46;106859.84;;;-0.21;100.00
56400;BME280;42298;53.638;9.876;2024-01-06T00:51:11;106789.84;;;-0.23;100.00
56400;BME280;42298;53.638;9.876;2024-01-06T00:53:37;106758.31;;;-0.25;100.00
56400;BME280;42298;53.638;9.876;2024-01-06T00:56:02;106714.59;;;-0.26;100.00
56400;BME280;42298;53.638;9.876;2024-01-06T00:58:27;106653.19;;;-0.32;100.00
56400;BME280;42298;53.638;9.876;2024-01-06T01:00:53;106626.03;;;-0.34;100.00
56400;BME280;42298;53.638;9.876;2024-01-06T01:03:20;106634.84;;;-0.32;100.00
56400;BME280;42298;53.638;9.876;2024-01-06T01:05:45;106650.47;;;-0.35;100.00
56400;BME280;42298;53.638;9.876;2024-01-06T01:08:10;106711.81;;;-0.30;100.00
56400;BME280;42298;53.638;9.876;2024-01-06T01:10:36;106781.91;;;-0.25;100.00
56400;BME280;42298;53.638;9.876;2024-01-06T01:13:01;106790.69;;;-0.24;100.00
56400;BME280;42298;53.638;9.876;2024-01-06T01:15:26;106788.81;;;-0.27;100.00
56400;BME280;42298;53.638;9.876;2024-01-06T01:17:51;106822.16;;;-0.24;100.00
56400;BME280;42298;53.638;9.876;2024-01-06T01:20:17;106753.63;;;-0.33;100.00
56400;BME280;42298;53.638;9.876;2024-01-06T01:22:42;106686.97;;;-0.40;100.00
56400;BME280;42298;53.638;9.876;2024-01-06T01:25:07;106685.91;;;-0.45;100.00
56400;BME280;42298;53.638;9.876;2024-01-06T01:27:36;106741.03;;;-0.44;100.00
56400;BME280;42298;53.638;9.876;2024-01-06T01:30:01;106740.84;;;-0.48;100.00
56400;BME280;42298;53.638;9.876;2024-01-06T01:32:27;106730.22;;;-0.51;100.00
56400;BME280;42298;53.638;9.876;2024-01-06T01:34:52;106798.69;;;-0.44;100.00
56400;BME280;42298;53.638;9.876;2024-01-06T01:37:19;106846.81;;;-0.42;100.00
56400;BME280;42298;53.638;9.876;2024-01-06T01:39:44;106850.94;;;-0.47;100.00
56400;BME280;42298;53.638;9.876;2024-01-06T01:42:10;106783.41;;;-0.54;100.00
56400;BME280;42298;53.638;9.876;2024-01-06T01:44:35;106810.41;;;-0.56;100.00
56400;BME280;42298;53.638;9.876;2024-01-06T01:47:00;106880.44;;;-0.52;100.00
56400;BME280;42298;53.638;9.876;2024-01-06T01:49:26;106913.66;;;-0.51;100.00
56400;BME280;42298;53.638;9.876;2024-01-06T01:51:52;106922.19;;;-0.57;100.00
56400;BME280;42298;53.638;9.876;2024-01-06T01:54:18;106881.78;;;-0.62;100.00
56400;BME280;42298;53.638;9.876;2024-01-06T01:56:43;106880.00;;;-0.63;100.00
56400;BME280;42298;53.638;9.876;2024-01-06T01:59:12;106970.16;;;-0.58;100.00
56400;BME280;42298;53.638;9.876;2024-01-06T02:01:40;106969.94;;;-0.64;100.00
56400;BME280;42298;53.638;9.876;2024-01-06T02:04:06;107018.03;;;-0.62;100.00
56400;BME280;42298;53.638;9.876;2024-01-06T02:06:31;107063.69;;;-0.57;100.00
56400;BME280;42298;53.638;9.876;2024-01-06T02:08:58;107052.81;;;-0.66;100.00
56400;BME280;42298;53.638;9.876;2024-01-06T02:11:23;107064.94;;;-0.68;100.00
56400;BME280;42298;53.638;9.876;2024-01-06T02:13:50;107086.81;;;-0.68;100.00
56400;BME280;42298;53.638;9.876;2024-01-06T02:16:15;107132.31;;;-0.66;100.00
56400;BME280;42298;53.638;9.876;2024-01-06T02:18:40;107167.34;;;-0.64;100.00
56400;BME280;42298;53.638;9.876;2024-01-06T02:21:06;107168.91;;;-0.67;100.00
56400;BME280;42298;53.638;9.876;2024-01-06T02:23:34;107214.34;;;-0.67;100.00
56400;BME280;42298;53.638;9.876;2024-01-06T02:26:00;107232.63;;;-0.68;100.00
56400;BME280;42298;53.638;9.876;2024-01-06T02:28:25;107248.19;;;-0.71;100.00
56400;BME280;42298;53.638;9.876;2024-01-06T02:30:51;107307.03;;;-0.65;100.00
56400;BME280;42298;53.638;9.876;2024-01-06T02:33:16;107336.91;;;-0.61;100.00
56400;BME280;42298;53.638;9.876;2024-01-06T02:35:44;107403.63;;;-0.54;100.00
56400;BME280;42298;53.638;9.876;2024-01-06T02:38:09;107343.56;;;-0.68;100.00
56400;BME280;42298;53.638;9.876;2024-01-06T02:40:35;107383.94;;;-0.64;100.00
56400;BME280;42298;53.638;9.876;2024-01-06T02:43:00;107389.84;;;-0.68;100.00
56400;BME280;42298;53.638;9.876;2024-01-06T02:45:25;107413.47;;;-0.67;100.00
56400;BME280;42298;53.638;9.876;2024-01-06T02:47:51;107463.50;;;-0.62;100.00
56400;BME280;42298;53.638;9.876;2024-01-06T02:50:16;107478.31;;;-0.63;100.00
56400;BME280;42298;53.638;9.876;2024-01-06T02:52:44;107456.91;;;-0.72;100.00
56400;BME280;42298;53.638;9.876;2024-01-06T02:55:09;107457.66;;;-0.74;100.00
56400;BME280;42298;53.638;9.876;2024-01-06T02:57:34;107502.44;;;-0.70;100.00
56400;BME280;42298;53.638;9.876;2024-01-06T03:00:01;107489.25;;;-0.71;100.00
56400;BME280;42298;53.638;9.876;2024-01-06T03:02:26;107548.19;;;-0.63;100.00
56400;BME280;42298;53.638;9.876;2024-01-06T03:04:51;107578.75;;;-0.64;100.00
56400;BME280;42298;53.638;9.876;2024-01-06T03:07:16;107578.66;;;-0.65;100.00
56400;BME280;42298;53.638;9.876;2024-01-06T03:09:42;107581.38;;;-0.64;100.00
56400;BME280;42298;53.638;9.876;2024-01-06T03:12:07;107598.13;;;-0.60;100.00
56400;BME280;42298;53.638;9.876;2024-01-06T03:14:36;107605.94;;;-0.61;100.00
56400;BME280;42298;53.638;9.876;2024-01-06T03:17:01;107589.22;;;-0.64;100.00
56400;BME280;42298;53.638;9.876;2024-01-06T03:19:28;107594.28;;;-0.67;100.00
56400;BME280;42298;53.638;9.876;2024-01-06T03:21:54;107622.63;;;-0.59;100.00
56400;BME280;42298;53.638;9.876;2024-01-06T03:24:20;107597.09;;;-0.64;100.00
56400;BME280;42298;53.638;9.876;2024-01-06T03:26:46;107552.13;;;-0.71;100.00
56400;BME280;42298;53.638;9.876;2024-01-06T03:29:12;107475.38;;;-0.69;100.00
56400;BME280;42298;53.638;9.876;2024-01-06T03:31:37;107437.91;;;-0.68;100.00
56400;BME280;42298;53.638;9.876;2024-01-06T03:34:03;107451.13;;;-0.65;100.00
56400;BME280;42298;53.638;9.876;2024-01-06T03:36:28;107449.50;;;-0.63;100.00
56400;BME280;42298;53.638;9.876;2024-01-06T03:38:54;107436.34;;;-0.64;100.00
56400;BME280;42298;53.638;9.876;2024-01-06T03:41:19;107443.38;;;-0.63;100.00
56400;BME280;42298;53.638;9.876;2024-01-06T03:43:44;107404.50;;;-0.72;100.00
56400;BME280;42298;53.638;9.876;2024-01-06T03:46:11;107456.47;;;-0.63;100.00
56400;BME280;42298;53.638;9.876;2024-01-06T03:48:36;107451.09;;;-0.66;100.00
56400;BME280;42298;53.638;9.876;2024-01-06T03:51:02;107480.28;;;-0.58;100.00
56400;BME280;42298;53.638;9.876;2024-01-06T03:53:29;107449.44;;;-0.64;100.00
56400;BME280;42298;53.638;9.876;2024-01-06T03:55:54;107410.94;;;-0.65;100.00
56400;BME280;42298;53.638;9.876;2024-01-06T03:58:19;107445.47;;;-0.56;100.00
56400;BME280;42298;53.638;9.876;2024-01-06T04:00:45;107482.56;;;-0.48;100.00
56400;BME280;42298;53.638;9.876;2024-01-06T04:03:11;107420.97;;;-0.56;100.00
56400;BME280;42298;53.638;9.876;2024-01-06T04:05:36;107381.75;;;-0.55;100.00
56400;BME280;42298;53.638;9.876;2024-01-06T04:08:02;107291.47;;;-0.61;100.00
56400;BME280;42298;53.638;9.876;2024-01-06T04:10:27;107193.47;;;-0.65;100.00
56400;BME280;42298;53.638;9.876;2024-01-06T04:12:52;107221.91;;;-0.55;100.00
56400;BME280;42298;53.638;9.876;2024-01-06T04:15:21;107243.00;;;-0.52;100.00
56400;BME280;42298;53.638;9.876;2024-01-06T04:17:48;107202.72;;;-0.54;100.00
56400;BME280;42298;53.638;9.876;2024-01-06T04:20:14;107174.56;;;-0.58;100.00
56400;BME280;42298;53.638;9.876;2024-01-06T04:22:39;107193.88;;;-0.56;100.00
56400;BME280;42298;53.638;9.876;2024-01-06T04:25:05;107149.03;;;-0.62;100.00
56400;BME280;42298;53.638;9.876;2024-01-06T04:27:30;107096.38;;;-0.68;100.00
56400;BME280;42298;53.638;9.876;2024-01-06T04:29:56;107060.59;;;-0.68;100.00
56400;BME280;42298;53.638;9.876;2024-01-06T04:32:21;107026.25;;;-0.74;100.00
56400;BME280;42298;53.638;9.876;2024-01-06T04:34:47;107103.41;;;-0.67;100.00
56400;BME280;42298;53.638;9.876;2024-01-06T04:37:12;107194.44;;;-0.63;100.00
56400;BME280;42298;53.638;9.876;2024-01-06T04:39:37;107157.66;;;-0.65;100.00
56400;BME280;42298;53.638;9.876;2024-01-06T04:42:04;107149.19;;;-0.59;100.00
56400;BME280;42298;53.638;9.876;2024-01-06T04:44:29;107115.94;;;-0.60;100.00
56400;BME280;42298;53.638;9.876;2024-01-06T04:46:54;107097.69;;;-0.58;100.00
56400;BME280;42298;53.638;9.876;2024-01-06T04:49:20;107056.44;;;-0.63;100.00
56400;BME280;42298;53.638;9.876;2024-01-06T04:51:45;107022.38;;;-0.63;100.00
56400;BME280;42298;53.638;9.876;2024-01-06T04:54:10;107028.00;;;-0.53;100.00
56400;BME280;42298;53.638;9.876;2024-01-06T04:56:35;107085.81;;;-0.50;100.00
56400;BME280;42298;53.638;9.876;2024-01-06T04:59:01;106993.75;;;-0.58;100.00
56400;BME280;42298;53.638;9.876;2024-01-06T05:01:26;106917.75;;;-0.58;100.00
56400;BME280;42298;53.638;9.876;2024-01-06T05:03:51;106843.31;;;-0.63;100.00
56400;BME280;42298;53.638;9.876;2024-01-06T05:06:19;106785.50;;;-0.68;100.00
56400;BME280;42298;53.638;9.876;2024-01-06T05:08:44;106789.25;;;-0.61;100.00
56400;BME280;42298;53.638;9.876;2024-01-06T05:11:11;106765.69;;;-0.61;100.00
56400;BME280;42298;53.638;9.876;2024-01-06T05:13:37;106754.34;;;-0.60;100.00
56400;BME280;42298;53.638;9.876;2024-01-06T05:16:03;106720.28;;;-0.60;100.00
56400;BME280;42298;53.638;9.876;2024-01-06T05:18:28;106652.78;;;-0.67;100.00
56400;BME280;42298;53.638;9.876;2024-01-06T05:20:54;106574.41;;;-0.61;100.00
56400;BME280;42298;53.638;9.876;2024-01-06T05:23:20;106576.47;;;-0.52;100.00
56400;BME280;42298;53.638;9.876;2024-01-06T05:25:45;106546.72;;;-0.54;100.00
56400;BME280;42298;53.638;9.876;2024-01-06T05:28:11;106481.84;;;-0.61;100.00
56400;BME280;42298;53.638;9.876;2024-01-06T05:30:36;106463.50;;;-0.61;100.00
56400;BME280;42298;53.638;9.876;2024-01-06T05:33:01;106425.91;;;-0.62;100.00
56400;BME280;42298;53.638;9.876;2024-01-06T05:35:27;106435.66;;;-0.58;100.00
56400;BME280;42298;53.638;9.876;2024-01-06T05:37:54;106440.06;;;-0.57;100.00
56400;BME280;42298;53.638;9.876;2024-01-06T05:40:20;106424.34;;;-0.57;100.00
56400;BME280;42298;53.638;9.876;2024-01-06T05:42:47;106414.69;;;-0.58;100.00
56400;BME280;42298;53.638;9.876;2024-01-06T05:45:12;106472.47;;;-0.53;100.00
56400;BME280;42298;53.638;9.876;2024-01-06T05:47:40;106416.50;;;-0.57;100.00
56400;BME280;42298;53.638;9.876;2024-01-06T05:50:06;106397.22;;;-0.59;100.00
56400;BME280;42298;53.638;9.876;2024-01-06T05:52:34;106371.69;;;-0.65;100.00
56400;BME280;42298;53.638;9.876;2024-01-06T05:54:59;106373.22;;;-0.71;100.00
56400;BME280;42298;53.638;9.876;2024-01-06T05:57:24;106381.22;;;-0.67;100.00
56400;BME280;42298;53.638;9.876;2024-01-06T05:59:50;106390.81;;;-0.67;100.00
56400;BME280;42298;53.638;9.876;2024-01-06T06:02:15;106422.25;;;-0.67;100.00
56400;BME280;42298;53.638;9.876;2024-01-06T06:04:40;106501.94;;;-0.60;100.00
56400;BME280;42298;53.638;9.876;2024-01-06T06:07:06;106485.34;;;-0.61;100.00
56400;BME280;42298;53.638;9.876;2024-01-06T06:09:31;106420.66;;;-0.62;100.00
56400;BME280;42298;53.638;9.876;2024-01-06T06:11:56;106402.22;;;-0.65;100.00
56400;BME280;42298;53.638;9.876;2024-01-06T06:14:21;106361.03;;;-0.71;100.00
56400;BME280;42298;53.638;9.876;2024-01-06T06:16:47;106409.09;;;-0.69;100.00
56400;BME280;42298;53.638;9.876;2024-01-06T06:19:13;106585.94;;;-0.56;100.00
56400;BME280;42298;53.638;9.876;2024-01-06T06:21:38;106541.38;;;-0.57;100.00
56400;BME280;42298;53.638;9.876;2024-01-06T06:24:04;106567.59;;;-0.56;100.00
56400;BME280;42298;53.638;9.876;2024-01-06T06:26:29;106420.50;;;-0.67;100.00
56400;BME280;42298;53.638;9.876;2024-01-06T06:28:55;106349.75;;;-0.68;100.00
56400;BME280;42298;53.638;9.876;2024-01-06T06:31:21;106376.69;;;-0.72;100.00
56400;BME280;42298;53.638;9.876;2024-01-06T06:33:47;106411.53;;;-0.75;100.00
56400;BME280;42298;53.638;9.876;2024-01-06T06:36:12;106498.22;;;-0.67;100.00
56400;BME280;42298;53.638;9.876;2024-01-06T06:38:38;106486.78;;;-0.69;100.00
56400;BME280;42298;53.638;9.876;2024-01-06T06:41:03;106545.44;;;-0.66;100.00
56400;BME280;42298;53.638;9.876;2024-01-06T06:43:28;106575.22;;;-0.62;100.00
56400;BME280;42298;53.638;9.876;2024-01-06T06:45:53;106523.69;;;-0.63;100.00
56400;BME280;42298;53.638;9.876;2024-01-06T06:48:20;106513.22;;;-0.63;100.00
56400;BME280;42298;53.638;9.876;2024-01-06T06:50:46;106483.50;;;-0.64;100.00
56400;BME280;42298;53.638;9.876;2024-01-06T06:53:11;106540.44;;;-0.58;100.00
56400;BME280;42298;53.638;9.876;2024-01-06T06:55:38;106552.66;;;-0.58;100.00
56400;BME280;42298;53.638;9.876;2024-01-06T06:58:04;106522.97;;;-0.59;100.00
56400;BME280;42298;53.638;9.876;2024-01-06T07:00:30;106522.91;;;-0.60;100.00
56400;BME280;42298;53.638;9.876;2024-01-06T07:02:55;106455.50;;;-0.65;100.00
56400;BME280;42298;53.638;9.876;2024-01-06T07:05:20;106457.31;;;-0.64;100.00
56400;BME280;42298;53.638;9.876;2024-01-06T07:07:46;106469.53;;;-0.64;100.00
56400;BME280;42298;53.638;9.876;2024-01-06T07:10:12;106553.63;;;-0.56;100.00
56400;BME280;42298;53.638;9.876;2024-01-06T07:12:37;106486.16;;;-0.62;100.00
56400;BME280;42298;53.638;9.876;2024-01-06T07:15:03;106521.13;;;-0.61;100.00
56400;BME280;42298;53.638;9.876;2024-01-06T07:17:28;106538.69;;;-0.59;100.00
56400;BME280;42298;53.638;9.876;2024-01-06T07:19:54;106562.38;;;-0.56;100.00
56400;BME280;42298;53.638;9.876;2024-01-06T07:22:19;106524.72;;;-0.58;100.00
56400;BME280;42298;53.638;9.876;2024-01-06T07:24:45;106517.72;;;-0.59;100.00
56400;BME280;42298;53.638;9.876;2024-01-06T07:27:10;106450.25;;;-0.66;100.00
56400;BME280;42298;53.638;9.876;2024-01-06T07:29:36;106546.41;;;-0.62;100.00
56400;BME280;42298;53.638;9.876;2024-01-06T07:32:02;106456.06;;;-0.75;100.00
56400;BME280;42298;53.638;9.876;2024-01-06T07:34:27;106557.34;;;-0.74;100.00
56400;BME280;42298;53.638;9.876;2024-01-06T07:36:53;106628.22;;;-0.71;100.00
56400;BME280;42298;53.638;9.876;2024-01-06T07:39:18;106613.41;;;-0.69;100.00
56400;BME280;42298;53.638;9.876;2024-01-06T07:41:43;106623.88;;;-0.70;100.00
56400;BME280;42298;53.638;9.876;2024-01-06T07:44:10;106607.97;;;-0.75;100.00
56400;BME280;42298;53.638;9.876;2024-01-06T07:46:35;106629.81;;;-0.74;100.00
56400;BME280;42298;53.638;9.876;2024-01-06T07:49:02;106665.59;;;-0.75;100.00
56400;BME280;42298;53.638;9.876;2024-01-06T07:51:28;106694.47;;;-0.73;100.00
56400;BME280;42298;53.638;9.876;2024-01-06T07:53:53;106830.16;;;-0.65;100.00
56400;BME280;42298;53.638;9.876;2024-01-06T07:56:19;106771.38;;;-0.71;100.00
56400;BME280;42298;53.638;9.876;2024-01-06T07:58:44;106971.97;;;-0.57;100.00
56400;BME280;42298;53.638;9.876;2024-01-06T08:01:09;106933.38;;;-0.61;100.00
56400;BME280;42298;53.638;9.876;2024-01-06T08:03:35;106846.66;;;-0.67;100.00
56400;BME280;42298;53.638;9.876;2024-01-06T08:06:00;106724.19;;;-0.73;100.00
56400;BME280;42298;53.638;9.876;2024-01-06T08:08:26;106769.47;;;-0.75;100.00
56400;BME280;42298;53.638;9.876;2024-01-06T08:11:02;106849.28;;;-0.67;100.00
56400;BME280;42298;53.638;9.876;2024-01-06T08:13:27;106816.84;;;-0.71;100.00
56400;BME280;42298;53.638;9.876;2024-01-06T08:15:53;106786.41;;;-0.67;100.00
56400;BME280;42298;53.638;9.876;2024-01-06T08:18:20;106704.84;;;-0.76;100.00
56400;BME280;42298;53.638;9.876;2024-01-06T08:20:46;106718.03;;;-0.73;100.00
56400;BME280;42298;53.638;9.876;2024-01-06T08:23:11;106700.53;;;-0.74;100.00
56400;BME280;42298;53.638;9.876;2024-01-06T08:25:37;106716.97;;;-0.78;100.00
56400;BME280;42298;53.638;9.876;2024-01-06T08:28:02;106798.44;;;-0.72;100.00
56400;BME280;42298;53.638;9.876;2024-01-06T08:30:28;106794.84;;;-0.74;100.00
56400;BME280;42298;53.638;9.876;2024-01-06T08:32:53;106743.25;;;-0.77;100.00
56400;BME280;42298;53.638;9.876;2024-01-06T08:35:18;106787.00;;;-0.74;100.00
56400;BME280;42298;53.638;9.876;2024-01-06T08:37:45;106934.06;;;-0.65;100.00
56400;BME280;42298;53.638;9.876;2024-01-06T08:40:10;106945.44;;;-0.65;100.00
56400;BME280;42298;53.638;9.876;2024-01-06T08:42:36;106974.44;;;-0.60;100.00
56400;BME280;42298;53.638;9.876;2024-01-06T08:45:01;106980.66;;;-0.58;100.00
56400;BME280;42298;53.638;9.876;2024-01-06T08:47:27;106857.38;;;-0.61;100.00
56400;BME280;42298;53.638;9.876;2024-01-06T08:49:52;106931.97;;;-0.53;100.00
56400;BME280;42298;53.638;9.876;2024-01-06T08:52:18;106969.63;;;-0.51;100.00
56400;BME280;42298;53.638;9.876;2024-01-06T08:54:43;106927.69;;;-0.51;100.00
56400;BME280;42298;53.638;9.876;2024-01-06T08:57:09;106861.41;;;-0.48;100.00
56400;BME280;42298;53.638;9.876;2024-01-06T08:59:35;106737.34;;;-0.49;100.00
56400;BME280;42298;53.638;9.876;2024-01-06T09:02:00;106709.34;;;-0.50;100.00
56400;BME280;42298;53.638;9.876;2024-01-06T09:04:26;106768.19;;;-0.42;100.00
56400;BME280;42298;53.638;9.876;2024-01-06T09:06:51;106679.69;;;-0.49;100.00
56400;BME280;42298;53.638;9.876;2024-01-06T09:09:17;106629.84;;;-0.50;100.00
56400;BME280;42298;53.638;9.876;2024-01-06T09:11:42;106578.16;;;-0.54;100.00
56400;BME280;42298;53.638;9.876;2024-01-06T09:14:12;106594.97;;;-0.48;100.00
56400;BME280;42298;53.638;9.876;2024-01-06T09:16:37;106540.75;;;-0.50;100.00
56400;BME280;42298;53.638;9.876;2024-01-06T09:19:03;106535.59;;;-0.47;100.00
56400;BME280;42298;53.638;9.876;2024-01-06T09:21:28;106569.81;;;-0.43;100.00
56400;BME280;42298;53.638;9.876;2024-01-06T09:23:56;106477.78;;;-0.52;100.00
56400;BME280;42298;53.638;9.876;2024-01-06T09:26:21;106393.59;;;-0.63;100.00
56400;BME280;42298;53.638;9.876;2024-01-06T09:28:47;106387.72;;;-0.55;100.00
56400;BME280;42298;53.638;9.876;2024-01-06T09:31:15;106346.41;;;-0.64;100.00
56400;BME280;42298;53.638;9.876;2024-01-06T09:33:47;106339.78;;;-0.53;100.00
56400;BME280;42298;53.638;9.876;2024-01-06T09:36:12;106346.88;;;-0.49;100.00
56400;BME280;42298;53.638;9.876;2024-01-06T09:38:39;106305.59;;;-0.56;100.00
56400;BME280;42298;53.638;9.876;2024-01-06T09:41:04;106240.75;;;-0.63;100.00
56400;BME280;42298;53.638;9.876;2024-01-06T09:43:35;106279.50;;;-0.53;100.00
56400;BME280;42298;53.638;9.876;2024-01-06T09:46:30;106227.66;;;-0.63;100.00
56400;BME280;42298;53.638;9.876;2024-01-06T09:48:59;106206.66;;;-0.65;100.00
56400;BME280;42298;53.638;9.876;2024-01-06T09:51:25;106219.81;;;-0.63;100.00
56400;BME280;42298;53.638;9.876;2024-01-06T09:54:05;106228.41;;;-0.67;100.00
56400;BME280;42298;53.638;9.876;2024-01-06T09:56:39;106231.03;;;-0.67;100.00
56400;BME280;42298;53.638;9.876;2024-01-06T09:59:04;106291.59;;;-0.56;100.00
56400;BME280;42298;53.638;9.876;2024-01-06T10:01:30;106441.91;;;-0.54;100.00
56400;BME280;42298;53.638;9.876;2024-01-06T10:03:55;106347.44;;;-0.59;100.00
56400;BME280;42298;53.638;9.876;2024-01-06T10:06:33;106250.28;;;-0.65;100.00
56400;BME280;42298;53.638;9.876;2024-01-06T10:08:59;106276.13;;;-0.49;100.00
56400;BME280;42298;53.638;9.876;2024-01-06T10:11:25;106210.38;;;-0.56;100.00
56400;BME280;42298;53.638;9.876;2024-01-06T10:13:51;106255.19;;;-0.49;100.00
56400;BME280;42298;53.638;9.876;2024-01-06T10:16:18;106280.47;;;-0.49;100.00
56400;BME280;42298;53.638;9.876;2024-01-06T10:18:44;106175.34;;;-0.60;100.00
56400;BME280;42298;53.638;9.876;2024-01-06T10:21:10;106169.34;;;-0.57;100.00
56400;BME280;42298;53.638;9.876;2024-01-06T10:23:36;106170.34;;;-0.52;100.00
56400;BME280;42298;53.638;9.876;2024-01-06T10:26:02;106159.91;;;-0.51;100.00
56400;BME280;42298;53.638;9.876;2024-01-06T10:28:28;106184.50;;;-0.46;100.00
56400;BME280;42298;53.638;9.876;2024-01-06T10:30:55;106166.09;;;-0.49;100.00
56400;BME280;42298;53.638;9.876;2024-01-06T10:33:21;106071.66;;;-0.52;100.00
56400;BME280;42298;53.638;9.876;2024-01-06T10:35:48;106040.91;;;-0.59;100.00
56400;BME280;42298;53.638;9.876;2024-01-06T10:38:14;105998.81;;;-0.65;100.00
56400;BME280;42298;53.638;9.876;2024-01-06T10:40:55;106042.72;;;-0.56;100.00
56400;BME280;42298;53.638;9.876;2024-01-06T10:43:22;106091.78;;;-0.51;100.00
56400;BME280;42298;53.638;9.876;2024-01-06T10:45:49;106108.44;;;-0.49;100.00
56400;BME280;42298;53.638;9.876;2024-01-06T10:48:15;106173.28;;;-0.42;100.00
56400;BME280;42298;53.638;9.876;2024-01-06T10:50:41;106220.53;;;-0.38;100.00
56400;BME280;42298;53.638;9.876;2024-01-06T10:53:07;106125.25;;;-0.40;100.00
56400;BME280;42298;53.638;9.876;2024-01-06T10:55:34;106009.66;;;-0.51;100.00
56400;BME280;42298;53.638;9.876;2024-01-06T10:58:00;105942.34;;;-0.54;100.00
56400;BME280;42298;53.638;9.876;2024-01-06T11:00:26;105940.59;;;-0.55;100.00
56400;BME280;42298;53.638;9.876;2024-01-06T11:02:52;105949.38;;;-0.53;100.00
56400;BME280;42298;53.638;9.876;2024-01-06T11:05:19;105925.75;;;-0.54;100.00
56400;BME280;42298;53.638;9.876;2024-01-06T11:07:46;105892.41;;;-0.60;100.00
56400;BME280;42298;53.638;9.876;2024-01-06T11:10:15;105902.13;;;-0.56;100.00
56400;BME280;42298;53.638;9.876;2024-01-06T11:12:44;105888.19;;;-0.55;100.00
56400;BME280;42298;53.638;9.876;2024-01-06T11:15:50;105979.19;;;-0.48;100.00
56400;BME280;42298;53.638;9.876;2024-01-06T11:18:38;105971.44;;;-0.43;100.00
56400;BME280;42298;53.638;9.876;2024-01-06T11:21:16;105933.00;;;-0.44;100.00
56400;BME280;42298;53.638;9.876;2024-01-06T11:23:43;105867.41;;;-0.49;100.00
56400;BME280;42298;53.638;9.876;2024-01-06T11:26:08;105834.00;;;-0.57;100.00
56400;BME280;42298;53.638;9.876;2024-01-06T11:28:46;105872.53;;;-0.52;100.00
56400;BME280;42298;53.638;9.876;2024-01-06T11:31:12;105869.91;;;-0.52;100.00
56400;BME280;42298;53.638;9.876;2024-01-06T11:33:44;105819.13;;;-0.58;100.00
56400;BME280;42298;53.638;9.876;2024-01-06T11:36:14;105845.31;;;-0.58;100.00
56400;BME280;42298;53.638;9.876;2024-01-06T11:38:40;105846.13;;;-0.61;100.00
56400;BME280;42298;53.638;9.876;2024-01-06T11:41:09;105863.66;;;-0.58;100.00
56400;BME280;42298;53.638;9.876;2024-01-06T11:43:37;105878.59;;;-0.54;100.00
56400;BME280;42298;53.638;9.876;2024-01-06T11:46:05;105855.06;;;-0.53;100.00
56400;BME280;42298;53.638;9.876;2024-01-06T11:48:32;105861.06;;;-0.57;100.00
56400;BME280;42298;53.638;9.876;2024-01-06T11:50:58;105858.59;;;-0.51;100.00
56400;BME280;42298;53.638;9.876;2024-01-06T11:53:26;105787.78;;;-0.55;100.00
56400;BME280;42298;53.638;9.876;2024-01-06T11:55:53;105766.66;;;-0.61;100.00
56400;BME280;42298;53.638;9.876;2024-01-06T11:58:19;105814.75;;;-0.58;100.00
56400;BME280;42298;53.638;9.876;2024-01-06T12:01:02;105836.75;;;-0.51;100.00
56400;BME280;42298;53.638;9.876;2024-01-06T12:03:27;105793.75;;;-0.61;100.00
56400;BME280;42298;53.638;9.876;2024-01-06T12:06:02;105829.69;;;-0.55;100.00
56400;BME280;42298;53.638;9.876;2024-01-06T12:08:28;105798.16;;;-0.58;100.00
56400;BME280;42298;53.638;9.876;2024-01-06T12:11:04;106041.44;;;-0.39;100.00
56400;BME280;42298;53.638;9.876;2024-01-06T12:13:29;105941.63;;;-0.48;100.00
56400;BME280;42298;53.638;9.876;2024-01-06T12:15:55;105799.81;;;-0.62;100.00
56400;BME280;42298;53.638;9.876;2024-01-06T12:18:21;105775.97;;;-0.74;100.00
56400;BME280;42298;53.638;9.876;2024-01-06T12:20:47;105794.34;;;-0.73;100.00
56400;BME280;42298;53.638;9.876;2024-01-06T12:23:12;105841.66;;;-0.65;100.00
56400;BME280;42298;53.638;9.876;2024-01-06T12:25:39;105836.25;;;-0.71;100.00
56400;BME280;42298;53.638;9.876;2024-01-06T12:28:05;105841.44;;;-0.74;100.00
56400;BME280;42298;53.638;9.876;2024-01-06T12:30:30;105944.69;;;-0.66;100.00
56400;BME280;42298;53.638;9.876;2024-01-06T12:32:56;105919.16;;;-0.73;100.00
56400;BME280;42298;53.638;9.876;2024-01-06T12:35:24;105896.38;;;-0.77;100.00